Cuckfield, United Kingdom
Current Conditions -  °F | °C
As of 9:50 AM on Sunday 23 Nov 2014 (Local Time) from EGKK Reporting Station
Moderate Rain Moderate Rain  
Wind Chill: 43°   Ceiling: 2500
Heat Index: 48°   Visibility: 4mi
Dew Point: 46°   Wind: 12mph
Humidity: 93%   Direction: 350°N
Pressure: 30"   Gusts: NA
Location:  51.01°N, 0.14°W
Report Text: EGKK 230950Z 35010KT 320V020 7000 RA FEW011 SCT017 BKN025 09/08 Q1016
Loading
Personal Weather Stations






























Interactive Weather Map New forecast layout! Learn more

10-Day Weather Forecast

Advertisements
Track Severe Weather on mobile